sensor_id;sensor_type;location;lat;lon;timestamp;pressure;altitude;pressure_sealevel;temperature;humidity
11519;BME280;5816;48.228;14.116;2023-02-03T05:29:20;98914.44;;;2.75;100.00
11519;BME280;5816;48.228;14.116;2023-02-03T05:34:22;98918.00;;;2.74;100.00
11519;BME280;5816;48.228;14.116;2023-02-03T05:39:24;98894.63;;;2.85;100.00
11519;BME280;5816;48.228;14.116;2023-02-03T05:44:26;98868.94;;;2.87;100.00
11519;BME280;5816;48.228;14.116;2023-02-03T05:49:28;98851.88;;;2.94;100.00
11519;BME280;5816;48.228;14.116;2023-02-03T05:54:30;98840.50;;;2.92;100.00
11519;BME280;5816;48.228;14.116;2023-02-03T05:59:32;98835.16;;;2.94;100.00
11519;BME280;5816;48.228;14.116;2023-02-03T06:04:34;98842.06;;;3.17;100.00
11519;BME280;5816;48.228;14.116;2023-02-03T06:09:35;98842.31;;;3.31;100.00
11519;BME280;5816;48.228;14.116;2023-02-03T06:14:37;98856.41;;;3.32;100.00
11519;BME280;5816;48.228;14.116;2023-02-03T06:19:39;98843.75;;;3.38;100.00
11519;BME280;5816;48.228;14.116;2023-02-03T06:24:41;98844.00;;;3.32;100.00
11519;BME280;5816;48.228;14.116;2023-02-03T06:29:42;98837.81;;;3.52;100.00
11519;BME280;5816;48.228;14.116;2023-02-03T06:34:44;98846.13;;;3.44;100.00
11519;BME280;5816;48.228;14.116;2023-02-03T06:39:46;98839.31;;;3.39;100.00
11519;BME280;5816;48.228;14.116;2023-02-03T06:44:47;98835.25;;;3.50;100.00
11519;BME280;5816;48.228;14.116;2023-02-03T06:49:49;98827.97;;;3.55;100.00
11519;BME280;5816;48.228;14.116;2023-02-03T06:54:52;98824.59;;;3.71;100.00
11519;BME280;5816;48.228;14.116;2023-02-03T06:59:54;98823.22;;;3.81;100.00
11519;BME280;5816;48.228;14.116;2023-02-03T07:04:56;98836.16;;;3.87;100.00
11519;BME280;5816;48.228;14.116;2023-02-03T07:09:58;98841.47;;;3.87;100.00
11519;BME280;5816;48.228;14.116;2023-02-03T07:14:59;98842.91;;;3.94;100.00
11519;BME280;5816;48.228;14.116;2023-02-03T07:20:01;98858.97;;;3.91;100.00
11519;BME280;5816;48.228;14.116;2023-02-03T07:25:04;98854.72;;;3.87;100.00
11519;BME280;5816;48.228;14.116;2023-02-03T07:30:08;98842.88;;;4.13;100.00
11519;BME280;5816;48.228;14.116;2023-02-03T07:35:10;98840.88;;;4.18;100.00
11519;BME280;5816;48.228;14.116;2023-02-03T07:40:12;98829.16;;;4.22;100.00
11519;BME280;5816;48.228;14.116;2023-02-03T07:45:16;98838.28;;;4.17;100.00
11519;BME280;5816;48.228;14.116;2023-02-03T07:50:18;98834.63;;;4.19;100.00
11519;BME280;5816;48.228;14.116;2023-02-03T07:55:21;98837.94;;;4.24;100.00
11519;BME280;5816;48.228;14.116;2023-02-03T08:00:24;98830.09;;;4.21;100.00
11519;BME280;5816;48.228;14.116;2023-02-03T08:05:26;98812.75;;;4.33;100.00
11519;BME280;5816;48.228;14.116;2023-02-03T08:10:28;98826.94;;;4.32;100.00
11519;BME280;5816;48.228;14.116;2023-02-03T08:15:30;98821.09;;;4.43;100.00
11519;BME280;5816;48.228;14.116;2023-02-03T08:20:32;98829.28;;;4.55;100.00
11519;BME280;5816;48.228;14.116;2023-02-03T08:25:34;98815.25;;;4.53;100.00
11519;BME280;5816;48.228;14.116;2023-02-03T08:30:36;98822.34;;;4.70;100.00
11519;BME280;5816;48.228;14.116;2023-02-03T08:35:39;98840.22;;;4.49;100.00
11519;BME280;5816;48.228;14.116;2023-02-03T08:40:41;98833.06;;;4.68;100.00
11519;BME280;5816;48.228;14.116;2023-02-03T08:45:43;98825.56;;;4.59;100.00
11519;BME280;5816;48.228;14.116;2023-02-03T08:50:45;98814.47;;;4.68;100.00
11519;BME280;5816;48.228;14.116;2023-02-03T08:55:53;98818.06;;;4.67;100.00
11519;BME280;5816;48.228;14.116;2023-02-03T09:00:55;98823.06;;;4.74;100.00
11519;BME280;5816;48.228;14.116;2023-02-03T09:05:57;98837.09;;;4.93;100.00
11519;BME280;5816;48.228;14.116;2023-02-03T09:10:58;98834.59;;;4.90;100.00
11519;BME280;5816;48.228;14.116;2023-02-03T09:16:00;98830.25;;;4.89;100.00
11519;BME280;5816;48.228;14.116;2023-02-03T09:21:07;98838.03;;;5.09;100.00
11519;BME280;5816;48.228;14.116;2023-02-03T09:26:21;98826.56;;;5.09;100.00
11519;BME280;5816;48.228;14.116;2023-02-03T09:31:23;98833.66;;;5.08;100.00
11519;BME280;5816;48.228;14.116;2023-02-03T09:36:25;98823.63;;;5.13;100.00
11519;BME280;5816;48.228;14.116;2023-02-03T09:46:36;98812.25;;;5.11;100.00
11519;BME280;5816;48.228;14.116;2023-02-03T09:51:43;98809.19;;;5.19;100.00
11519;BME280;5816;48.228;14.116;2023-02-03T09:56:48;98807.28;;;5.21;100.00
11519;BME280;5816;48.228;14.116;2023-02-03T10:02:00;98806.56;;;5.35;100.00
11519;BME280;5816;48.228;14.116;2023-02-03T10:07:37;98799.81;;;5.45;100.00
11519;BME280;5816;48.228;14.116;2023-02-03T10:18:03;98781.22;;;5.45;100.00
11519;BME280;5816;48.228;14.116;2023-02-03T10:23:13;98764.34;;;5.46;99.55
11519;BME280;5816;48.228;14.116;2023-02-03T10:28:19;98764.94;;;5.51;99.38
11519;BME280;5816;48.228;14.116;2023-02-03T10:33:28;98752.50;;;5.67;97.98
11519;BME280;5816;48.228;14.116;2023-02-03T10:39:09;98754.84;;;5.73;96.75
11519;BME280;5816;48.228;14.116;2023-02-03T10:44:15;98743.59;;;5.68;96.73
11519;BME280;5816;48.228;14.116;2023-02-03T10:49:17;98730.06;;;5.73;96.09
11519;BME280;5816;48.228;14.116;2023-02-03T10:54:32;98725.94;;;5.67;96.07
11519;BME280;5816;48.228;14.116;2023-02-03T10:59:36;98724.22;;;5.66;96.09
11519;BME280;5816;48.228;14.116;2023-02-03T11:04:41;98707.59;;;5.78;94.86
11519;BME280;5816;48.228;14.116;2023-02-03T11:09:43;98703.97;;;5.80;95.45
11519;BME280;5816;48.228;14.116;2023-02-03T11:14:50;98682.88;;;5.76;95.83
11519;BME280;5816;48.228;14.116;2023-02-03T11:20:08;98684.25;;;5.84;95.49
11519;BME280;5816;48.228;14.116;2023-02-03T11:25:19;98688.88;;;5.96;94.96
11519;BME280;5816;48.228;14.116;2023-02-03T11:30:27;98666.41;;;5.86;94.69
11519;BME280;5816;48.228;14.116;2023-02-03T11:35:32;98682.63;;;5.97;94.38
11519;BME280;5816;48.228;14.116;2023-02-03T11:40:38;98662.28;;;5.96;93.27
11519;BME280;5816;48.228;14.116;2023-02-03T11:50:50;98638.03;;;5.86;96.62
11519;BME280;5816;48.228;14.116;2023-02-03T11:56:09;98637.47;;;5.65;99.11
11519;BME280;5816;48.228;14.116;2023-02-03T12:01:31;98636.09;;;5.74;99.87
11519;BME280;5816;48.228;14.116;2023-02-03T12:12:25;98579.66;;;5.69;99.14
11519;BME280;5816;48.228;14.116;2023-02-03T12:33:22;98560.59;;;5.76;96.99
11519;BME280;5816;48.228;14.116;2023-02-03T12:38:49;98568.81;;;5.88;95.68
11519;BME280;5816;48.228;14.116;2023-02-03T12:43:58;98562.44;;;5.90;95.09
11519;BME280;5816;48.228;14.116;2023-02-03T12:59:36;98499.34;;;5.94;93.71
11519;BME280;5816;48.228;14.116;2023-02-03T13:04:46;98498.41;;;5.95;92.65
11519;BME280;5816;48.228;14.116;2023-02-03T13:10:08;98470.75;;;5.97;92.94
11519;BME280;5816;48.228;14.116;2023-02-03T13:15:29;98455.28;;;6.04;92.38
11519;BME280;5816;48.228;14.116;2023-02-03T13:20:32;98435.56;;;5.94;92.39
11519;BME280;5816;48.228;14.116;2023-02-03T13:41:55;98375.91;;;6.12;90.40
11519;BME280;5816;48.228;14.116;2023-02-03T13:46:59;98359.19;;;6.10;89.60
11519;BME280;5816;48.228;14.116;2023-02-03T13:52:02;98362.44;;;6.01;89.62
11519;BME280;5816;48.228;14.116;2023-02-03T13:57:20;98342.25;;;6.11;89.56
11519;BME280;5816;48.228;14.116;2023-02-03T14:07:36;98335.84;;;6.01;90.71
11519;BME280;5816;48.228;14.116;2023-02-03T14:17:53;98299.69;;;5.70;94.26
11519;BME280;5816;48.228;14.116;2023-02-03T14:28:16;98299.97;;;5.80;93.27
11519;BME280;5816;48.228;14.116;2023-02-03T14:33:18;98307.59;;;5.71;93.62
11519;BME280;5816;48.228;14.116;2023-02-03T14:38:30;98275.44;;;5.89;92.23
11519;BME280;5816;48.228;14.116;2023-02-03T14:43:42;98275.44;;;6.03;91.00
11519;BME280;5816;48.228;14.116;2023-02-03T14:54:24;98293.03;;;6.06;90.47
11519;BME280;5816;48.228;14.116;2023-02-03T14:59:42;98304.34;;;5.95;91.27
11519;BME280;5816;48.228;14.116;2023-02-03T15:04:46;98335.25;;;6.10;90.90
11519;BME280;5816;48.228;14.116;2023-02-03T15:09:51;98335.44;;;6.07;91.17
11519;BME280;5816;48.228;14.116;2023-02-03T15:15:11;98327.50;;;5.93;92.79
11519;BME280;5816;48.228;14.116;2023-02-03T15:20:33;98342.88;;;6.02;92.97
11519;BME280;5816;48.228;14.116;2023-02-03T15:25:36;98321.34;;;5.92;94.02
11519;BME280;5816;48.228;14.116;2023-02-03T15:30:39;98329.84;;;5.83;94.80
11519;BME280;5816;48.228;14.116;2023-02-03T15:35:42;98323.78;;;5.81;94.87
11519;BME280;5816;48.228;14.116;2023-02-03T15:40:48;98340.31;;;5.86;95.30
11519;BME280;5816;48.228;14.116;2023-02-03T15:46:06;98323.41;;;5.87;95.97
11519;BME280;5816;48.228;14.116;2023-02-03T15:51:24;98312.91;;;5.71;97.02
11519;BME280;5816;48.228;14.116;2023-02-03T15:56:41;98323.50;;;5.86;96.81
11519;BME280;5816;48.228;14.116;2023-02-03T16:01:44;98309.84;;;5.77;96.96
11519;BME280;5816;48.228;14.116;2023-02-03T16:06:47;98289.50;;;5.76;97.21
11519;BME280;5816;48.228;14.116;2023-02-03T16:12:01;98269.09;;;5.77;96.74
11519;BME280;5816;48.228;14.116;2023-02-03T16:17:21;98257.78;;;6.02;95.52
11519;BME280;5816;48.228;14.116;2023-02-03T16:22:26;98246.41;;;5.86;95.97
11519;BME280;5816;48.228;14.116;2023-02-03T16:27:31;98245.66;;;5.84;96.52
11519;BME280;5816;48.228;14.116;2023-02-03T16:32:33;98262.94;;;5.91;96.13
11519;BME280;5816;48.228;14.116;2023-02-03T16:37:54;98255.75;;;5.78;95.80
11519;BME280;5816;48.228;14.116;2023-02-03T16:43:15;98257.78;;;6.02;95.39
11519;BME280;5816;48.228;14.116;2023-02-03T16:48:36;98268.47;;;6.15;94.26
11519;BME280;5816;48.228;14.116;2023-02-03T16:53:56;98272.94;;;6.14;93.71
11519;BME280;5816;48.228;14.116;2023-02-03T16:58:58;98270.41;;;6.25;93.13
11519;BME280;5816;48.228;14.116;2023-02-03T17:04:00;98275.09;;;6.22;93.31
11519;BME280;5816;48.228;14.116;2023-02-03T17:09:02;98285.50;;;6.25;93.57
11519;BME280;5816;48.228;14.116;2023-02-03T17:14:04;98286.38;;;6.25;93.89
11519;BME280;5816;48.228;14.116;2023-02-03T17:19:09;98261.19;;;6.04;95.98
11519;BME280;5816;48.228;14.116;2023-02-03T17:24:13;98304.91;;;5.86;99.46
11519;BME280;5816;48.228;14.116;2023-02-03T17:29:15;98254.16;;;5.62;100.00
11519;BME280;5816;48.228;14.116;2023-02-03T17:34:17;98274.88;;;5.57;100.00
11519;BME280;5816;48.228;14.116;2023-02-03T17:39:18;98270.41;;;5.43;100.00
11519;BME280;5816;48.228;14.116;2023-02-03T17:44:37;98281.22;;;5.40;100.00
11519;BME280;5816;48.228;14.116;2023-02-03T17:49:58;98260.94;;;5.39;100.00
11519;BME280;5816;48.228;14.116;2023-02-03T17:55:20;98264.72;;;5.35;100.00
11519;BME280;5816;48.228;14.116;2023-02-03T18:00:26;98273.44;;;5.37;100.00
11519;BME280;5816;48.228;14.116;2023-02-03T18:05:31;98288.81;;;5.32;100.00
11519;BME280;5816;48.228;14.116;2023-02-03T18:10:33;98290.34;;;5.36;100.00
11519;BME280;5816;48.228;14.116;2023-02-03T18:15:36;98293.91;;;5.35;100.00
11519;BME280;5816;48.228;14.116;2023-02-03T18:20:38;98285.22;;;5.33;100.00
11519;BME280;5816;48.228;14.116;2023-02-03T18:25:40;98298.69;;;5.30;100.00
11519;BME280;5816;48.228;14.116;2023-02-03T18:30:42;98300.19;;;5.34;100.00
11519;BME280;5816;48.228;14.116;2023-02-03T18:35:44;98287.28;;;5.28;100.00
11519;BME280;5816;48.228;14.116;2023-02-03T18:40:45;98293.53;;;5.27;100.00
11519;BME280;5816;48.228;14.116;2023-02-03T18:45:47;98292.91;;;5.23;100.00
11519;BME280;5816;48.228;14.116;2023-02-03T18:50:49;98304.47;;;5.22;100.00
11519;BME280;5816;48.228;14.116;2023-02-03T18:55:51;98255.63;;;4.96;100.00
11519;BME280;5816;48.228;14.116;2023-02-03T19:00:52;98293.38;;;5.15;100.00
11519;BME280;5816;48.228;14.116;2023-02-03T19:05:56;98288.06;;;5.15;100.00
11519;BME280;5816;48.228;14.116;2023-02-03T19:10:58;98317.81;;;5.20;100.00
11519;BME280;5816;48.228;14.116;2023-02-03T19:16:00;98330.94;;;5.23;100.00
11519;BME280;5816;48.228;14.116;2023-02-03T19:21:03;98316.31;;;5.16;100.00
11519;BME280;5816;48.228;14.116;2023-02-03T19:26:05;98326.75;;;5.19;100.00
11519;BME280;5816;48.228;14.116;2023-02-03T19:31:11;98339.63;;;5.11;100.00
11519;BME280;5816;48.228;14.116;2023-02-03T19:36:14;98343.03;;;5.13;100.00
11519;BME280;5816;48.228;14.116;2023-02-03T19:41:16;98348.34;;;5.13;100.00
11519;BME280;5816;48.228;14.116;2023-02-03T19:46:19;98353.28;;;5.05;100.00
11519;BME280;5816;48.228;14.116;2023-02-03T19:51:23;98366.38;;;5.08;100.00
11519;BME280;5816;48.228;14.116;2023-02-03T19:56:25;98364.94;;;5.03;100.00
11519;BME280;5816;48.228;14.116;2023-02-03T20:01:27;98364.47;;;5.10;100.00
11519;BME280;5816;48.228;14.116;2023-02-03T20:06:30;98374.25;;;5.10;100.00
11519;BME280;5816;48.228;14.116;2023-02-03T20:11:32;98372.03;;;5.02;100.00
11519;BME280;5816;48.228;14.116;2023-02-03T20:16:34;98374.25;;;5.10;100.00
11519;BME280;5816;48.228;14.116;2023-02-03T20:21:36;98370.34;;;5.01;100.00
11519;BME280;5816;48.228;14.116;2023-02-03T20:26:39;98371.84;;;5.05;100.00
11519;BME280;5816;48.228;14.116;2023-02-03T20:31:41;98375.94;;;5.11;100.00
11519;BME280;5816;48.228;14.116;2023-02-03T20:36:43;98381.91;;;5.14;100.00
11519;BME280;5816;48.228;14.116;2023-02-03T20:41:45;98395.28;;;5.13;100.00
11519;BME280;5816;48.228;14.116;2023-02-03T20:46:47;98394.28;;;5.15;100.00
11519;BME280;5816;48.228;14.116;2023-02-03T20:51:49;98401.81;;;5.07;100.00
11519;BME280;5816;48.228;14.116;2023-02-03T20:56:50;98401.81;;;5.07;100.00
11519;BME280;5816;48.228;14.116;2023-02-03T21:01:52;98411.78;;;5.04;100.00
11519;BME280;5816;48.228;14.116;2023-02-03T21:06:54;98413.34;;;4.92;100.00
11519;BME280;5816;48.228;14.116;2023-02-03T21:11:56;98411.63;;;4.91;100.00
11519;BME280;5816;48.228;14.116;2023-02-03T21:16:58;98401.19;;;4.88;100.00
11519;BME280;5816;48.228;14.116;2023-02-03T21:22:15;98374.19;;;4.65;100.00
11519;BME280;5816;48.228;14.116;2023-02-03T21:32:38;98413.03;;;4.82;100.00
11519;BME280;5816;48.228;14.116;2023-02-03T21:37:40;98360.88;;;4.51;100.00
11519;BME280;5816;48.228;14.116;2023-02-03T21:42:42;98384.78;;;4.65;100.00
11519;BME280;5816;48.228;14.116;2023-02-03T21:47:50;98376.59;;;4.70;100.00
11519;BME280;5816;48.228;14.116;2023-02-03T21:52:52;98391.47;;;4.73;100.00
11519;BME280;5816;48.228;14.116;2023-02-03T21:57:54;98408.41;;;4.70;100.00
11519;BME280;5816;48.228;14.116;2023-02-03T22:02:59;98413.38;;;4.76;100.00
11519;BME280;5816;48.228;14.116;2023-02-03T22:08:21;98431.94;;;4.76;100.00
11519;BME280;5816;48.228;14.116;2023-02-03T22:13:23;98433.16;;;4.71;100.00
11519;BME280;5816;48.228;14.116;2023-02-03T22:18:26;98469.34;;;4.72;100.00
11519;BME280;5816;48.228;14.116;2023-02-03T22:23:28;98489.81;;;4.70;100.00
11519;BME280;5816;48.228;14.116;2023-02-03T22:28:29;98504.63;;;4.74;100.00
11519;BME280;5816;48.228;14.116;2023-02-03T22:33:32;98494.94;;;4.73;100.00
11519;BME280;5816;48.228;14.116;2023-02-03T22:38:34;98500.00;;;4.61;100.00
11519;BME280;5816;48.228;14.116;2023-02-03T22:43:37;98520.53;;;4.58;100.00
11519;BME280;5816;48.228;14.116;2023-02-03T22:48:38;98519.16;;;4.51;100.00
11519;BME280;5816;48.228;14.116;2023-02-03T22:53:40;98534.22;;;4.50;100.00
11519;BME280;5816;48.228;14.116;2023-02-03T22:58:42;98516.50;;;4.51;100.00
11519;BME280;5816;48.228;14.116;2023-02-03T23:03:44;98526.34;;;4.49;100.00
11519;BME280;5816;48.228;14.116;2023-02-03T23:08:46;98517.88;;;4.42;100.00
11519;BME280;5816;48.228;14.116;2023-02-03T23:13:47;98519.16;;;4.35;100.00
11519;BME280;5816;48.228;14.116;2023-02-03T23:18:49;98526.34;;;4.33;100.00
11519;BME280;5816;48.228;14.116;2023-02-03T23:23:51;98522.75;;;4.34;100.00
11519;BME280;5816;48.228;14.116;2023-02-03T23:28:53;98524.78;;;4.29;100.00
